Overview Statistics Trail Chart Weather Telemetry Raw packets
 

This is the latest recevied weather packets stored in our database for station/object Waldburg. If no packets are shown the sender has not sent any weather packets the latest 10 day(s).

<< 7 8 9 10 11 12 13 >>
Time Temp. Humidity Pressure Rain* Wind** Luminosity Snow
1788316330 13.33° C 82% 1018.9 hPa 0 mm - - -
1788314529 13.89° C 80% 1019 hPa 0 mm - - -
1788312729 14.44° C 76% 1019.1 hPa 0 mm - - -
1788310930 15.56° C 74% 1019.3 hPa 0 mm - - -
1788309131 15.56° C 72% 1019.1 hPa 0 mm - - -
1788307331 16.11° C 71% 1019.2 hPa 0 mm - - -
1788305531 16.11° C 71% 1019.1 hPa 0 mm - - -
1788303731 15.56° C 74% 1019.4 hPa 0 mm - - -
1788301930 15.56° C 75% 1019.4 hPa 0 mm - - -
1788300131 16.11° C 75% 1019.6 hPa 0 mm - - -
1788298331 15° C 76% 1019.7 hPa 0 mm - - -
1788296531 15.56° C 73% 1019.7 hPa 0 mm - - -
1788294730 17.22° C 68% 1019.6 hPa 0 mm - - -
1788292931 17.78° C 65% 1019.6 hPa 0 mm - - -
1788291131 18.33° C 64% 1019.5 hPa 0 mm - - -
1788289330 18.33° C 65% 1019.4 hPa 0 mm - - -
1788287533 18.89° C 64% 1019.1 hPa 0 mm - - -
1788285731 19.44° C 61% 1018.9 hPa 0 mm - - -
1788283931 20° C 58% 1018.8 hPa 0 mm - - -
1788282131 21.11° C 57% 1018.8 hPa 0 mm - - -
1788280331 21.67° C 56% 1019 hPa 0 mm - - -
1788278530 22.78° C 53% 1019 hPa 0 mm - - -
1788276731 23.33° C 51% 1019 hPa 0 mm - - -
1788274930 23.33° C 49% 1018.9 hPa 0 mm - - -
1788273131 23.89° C 48% 1018.8 hPa 0 mm - - -

* Rain since midnight (hover to see other rain measurements)
** Current wind speed in m/s (hover to see current wind gust speed)